Decoded Metar for LDSP (SPLIT in CROATIA) (IATA:SPU) | Meteo·Mobile Aviation Weather
aviador You're here:

LDSP Decoded Metar

SPLIT in CROATIA
Report Time2019-01-18 11:00:00
UTC Time2019-01-18 11:15:43
Flight Rules vfr VFR
Wind110° at 09 kt
W.Decomp.*RWY 05: 4.8 kt HW 7.6 kt RCW
W.Rank110° ranks 1
Current wind is above 110° avg. (7.8)
Visibility9999 m
Phenomena:N/A
Clouds:Few 025 Hf
Scattered 032 Hf
Expected CloudBase > 1,600 ft AGL from Temp-Dew spread
CeilingNone
Temp13°C (ISA -2)
Dew Point09°C (77% RH)
AAT9.6°C
QNH1012 hPa
Density Alt36 ft
Elevation69 ft
Report Wrong Elevation
Raw Report
LDSP 181100Z 11009KT 9999 FEW025 SCT032 13/09 Q1012 NOSIG=

Extra information for LDSP:More info

Metar Taf Metar & Taf Last 4 Metars F.Rules Stats Wind Profile Meteogram Temp Stats Airport Information Weather charts Add Link Nearby VenuesMetar ALERT Operation Metar Decoded Social comments